createdAt,value
2018-07-06T00:00:19.800Z,2.33
2018-07-06T00:03:19.696Z,1.80
2018-07-06T00:06:19.771Z,1.80
2018-07-06T00:09:19.900Z,3.23
2018-07-06T00:12:20.053Z,2.70
2018-07-06T00:15:19.988Z,2.43
2018-07-06T00:18:20.144Z,2.10
2018-07-06T00:21:20.068Z,2.00
2018-07-06T00:24:20.048Z,2.23
2018-07-06T00:27:20.349Z,3.47
2018-07-06T00:30:20.430Z,4.20
2018-07-06T00:33:20.492Z,2.57
2018-07-06T00:36:20.539Z,2.77
2018-07-06T00:39:20.305Z,2.07
2018-07-06T00:42:20.383Z,2.70
2018-07-06T00:45:20.363Z,1.80
2018-07-06T00:48:20.468Z,2.17
2018-07-06T00:51:20.351Z,3.83
2018-07-06T00:54:20.429Z,3.10
2018-07-06T00:57:20.235Z,1.40
2018-07-06T01:00:20.756Z,1.53
2018-07-06T01:03:20.581Z,1.87
2018-07-06T01:06:20.497Z,4.03
2018-07-06T01:09:20.668Z,2.43
2018-07-06T01:12:25.544Z,2.70
2018-07-06T01:15:30.683Z,1.93
2018-07-06T01:18:30.469Z,2.33
2018-07-06T01:21:30.330Z,1.83
2018-07-06T01:24:30.264Z,2.10
2018-07-06T01:27:30.176Z,2.37
2018-07-06T01:30:30.228Z,3.60
2018-07-06T01:33:30.384Z,2.83
2018-07-06T01:36:30.484Z,2.93
2018-07-06T01:39:31.248Z,3.50
2018-07-06T01:42:31.453Z,4.43
2018-07-06T01:45:31.534Z,2.53
2018-07-06T01:48:31.488Z,4.60
2018-07-06T01:51:31.500Z,2.23
2018-07-06T01:54:25.195Z,2.87
2018-07-06T01:57:25.229Z,1.97
2018-07-06T02:00:19.148Z,2.27
2018-07-06T02:03:19.111Z,4.90
2018-07-06T02:06:19.268Z,2.83
2018-07-06T02:09:19.332Z,3.23
2018-07-06T02:12:19.460Z,4.80
2018-07-06T02:15:19.468Z,2.77
2018-07-06T02:18:19.424Z,2.13
2018-07-06T02:21:19.480Z,2.37
2018-07-06T02:24:19.529Z,2.90
2018-07-06T02:27:19.489Z,4.53
2018-07-06T02:30:19.472Z,6.43
2018-07-06T02:33:19.393Z,3.33
2018-07-06T02:36:19.322Z,2.70
2018-07-06T02:39:19.303Z,2.47
2018-07-06T02:42:19.128Z,1.87
2018-07-06T02:45:19.204Z,2.73
2018-07-06T02:48:19.288Z,2.47
2018-07-06T02:51:19.195Z,1.70
2018-07-06T02:54:19.046Z,2.43
2018-07-06T02:57:19.027Z,3.20
2018-07-06T03:00:19.048Z,2.20
2018-07-06T03:03:18.963Z,2.50
2018-07-06T03:06:18.850Z,2.97
2018-07-06T03:09:18.967Z,2.50
2018-07-06T03:12:19.028Z,2.53
2018-07-06T03:15:19.026Z,1.50
2018-07-06T03:18:19.107Z,3.43
2018-07-06T03:21:19.264Z,2.33
2018-07-06T03:24:19.191Z,2.83
2018-07-06T03:27:19.284Z,1.80
2018-07-06T03:30:19.224Z,2.27
2018-07-06T03:33:19.268Z,4.37
2018-07-06T03:36:19.196Z,4.10
2018-07-06T03:39:19.324Z,2.40
2018-07-06T03:42:19.444Z,2.60
2018-07-06T03:45:19.552Z,2.73
2018-07-06T03:48:19.587Z,2.13
2018-07-06T03:51:19.623Z,2.67
2018-07-06T03:54:19.623Z,2.30
2018-07-06T03:57:19.968Z,2.00
2018-07-06T04:00:19.944Z,1.77
2018-07-06T04:03:19.973Z,1.90
2018-07-06T04:06:20.008Z,2.50
2018-07-06T04:09:20.030Z,2.23
2018-07-06T04:12:20.026Z,3.53
2018-07-06T04:15:20.161Z,2.73
2018-07-06T04:18:19.943Z,3.87
2018-07-06T04:21:19.824Z,3.07
2018-07-06T04:24:19.676Z,5.30
2018-07-06T04:27:19.731Z,3.30
2018-07-06T04:30:19.768Z,5.67
2018-07-06T04:33:19.764Z,3.60
2018-07-06T04:36:19.695Z,3.53
2018-07-06T04:39:19.606Z,4.37
2018-07-06T04:42:19.524Z,4.70
2018-07-06T04:45:19.645Z,4.00
2018-07-06T04:48:19.686Z,3.40
2018-07-06T04:51:19.569Z,4.53
2018-07-06T04:54:19.625Z,3.33
2018-07-06T04:57:19.546Z,3.03
2018-07-06T05:00:19.524Z,2.70
2018-07-06T05:03:19.373Z,3.13
2018-07-06T05:06:19.407Z,3.20
2018-07-06T05:09:19.414Z,2.40
2018-07-06T05:12:19.363Z,2.70
2018-07-06T05:15:19.434Z,3.40
2018-07-06T05:18:19.258Z,4.43
2018-07-06T05:21:19.331Z,3.20
2018-07-06T05:24:19.431Z,4.43
2018-07-06T05:27:19.637Z,2.50
2018-07-06T05:30:19.672Z,2.93
2018-07-06T05:33:19.949Z,2.43
2018-07-06T05:36:20.133Z,2.53
2018-07-06T05:39:20.069Z,3.17
2018-07-06T05:42:20.048Z,3.63
2018-07-06T05:45:20.347Z,3.63
2018-07-06T05:48:20.185Z,3.30
2018-07-06T05:51:20.343Z,4.67
2018-07-06T05:54:20.354Z,3.50
2018-07-06T05:57:20.337Z,3.30
2018-07-06T06:00:20.248Z,5.57
2018-07-06T06:03:20.220Z,6.50
2018-07-06T06:06:20.138Z,5.80
2018-07-06T06:09:01.604Z,5.07
2018-07-06T06:11:38.909Z,6.00
2018-07-06T06:14:16.329Z,6.47
2018-07-06T06:16:53.669Z,6.23
2018-07-06T06:19:31.424Z,6.30
2018-07-06T06:22:08.800Z,6.40
2018-07-06T06:24:46.280Z,6.83
2018-07-06T06:27:23.572Z,6.37
2018-07-06T06:30:00.986Z,6.33
2018-07-06T06:32:38.513Z,5.73
2018-07-06T06:35:15.843Z,5.27
2018-07-06T06:37:53.266Z,5.17
2018-07-06T06:40:30.884Z,5.07
2018-07-06T06:43:08.211Z,4.90
2018-07-06T06:45:45.776Z,4.33
2018-07-06T06:48:24.112Z,4.13
2018-07-06T06:51:01.557Z,4.60
2018-07-06T06:53:39.696Z,4.50
2018-07-06T06:56:16.974Z,4.73
2018-07-06T06:58:54.599Z,4.80
2018-07-06T07:01:32.116Z,5.53
2018-07-06T07:04:20.179Z,4.37
2018-07-06T07:06:57.798Z,4.20
2018-07-06T07:09:35.237Z,4.00
2018-07-06T07:12:12.696Z,4.23
2018-07-06T07:14:49.998Z,4.17
2018-07-06T07:17:27.665Z,3.83
2018-07-06T07:20:05.128Z,4.00
2018-07-06T07:22:42.579Z,4.20
2018-07-06T07:25:20.127Z,4.23
2018-07-06T07:27:57.156Z,2.87
2018-07-06T07:30:34.492Z,3.93
2018-07-06T07:33:11.949Z,3.33
2018-07-06T07:35:49.410Z,3.90
2018-07-06T07:38:26.974Z,4.37
2018-07-06T07:41:04.428Z,4.97
2018-07-06T07:43:42.031Z,5.53
2018-07-06T07:46:19.533Z,4.50
2018-07-06T07:48:57.130Z,4.00
2018-07-06T07:52:11.068Z,3.87
2018-07-06T07:54:51.782Z,4.67
2018-07-06T07:57:29.464Z,5.40
2018-07-06T08:00:07.008Z,3.70
2018-07-06T08:02:44.529Z,4.20
2018-07-06T08:05:22.229Z,4.03
2018-07-06T08:07:59.729Z,6.70
2018-07-06T08:10:37.124Z,4.43
2018-07-06T08:13:14.694Z,4.30
2018-07-06T08:15:53.686Z,4.30
2018-07-06T08:18:31.168Z,3.83
2018-07-06T08:21:08.707Z,4.10
2018-07-06T08:23:46.282Z,5.67
2018-07-06T08:26:23.695Z,3.97
2018-07-06T08:29:01.292Z,4.27
2018-07-06T08:31:38.915Z,4.80
2018-07-06T08:34:32.862Z,3.70
2018-07-06T08:38:09.403Z,8.90
2018-07-06T08:40:46.794Z,4.10
2018-07-06T08:43:24.280Z,3.17
2018-07-06T08:46:01.664Z,2.80
2018-07-06T08:48:39.107Z,2.67
2018-07-06T08:51:16.471Z,2.40
2018-07-06T08:53:53.526Z,2.27
2018-07-06T08:56:30.657Z,2.50
2018-07-06T08:59:08.098Z,2.20
2018-07-06T09:01:45.412Z,3.60
2018-07-06T09:04:23.032Z,2.67
2018-07-06T09:07:00.269Z,2.37
2018-07-06T09:09:37.912Z,2.50
2018-07-06T09:12:15.417Z,2.30
2018-07-06T09:14:52.811Z,3.13
2018-07-06T09:17:30.274Z,2.57
2018-07-06T09:20:08.049Z,2.60
2018-07-06T09:22:45.365Z,2.80
2018-07-06T09:25:22.940Z,4.37
2018-07-06T09:28:00.524Z,3.20
2018-07-06T09:30:37.949Z,3.27
2018-07-06T09:33:14.927Z,3.47
2018-07-06T09:35:52.251Z,5.40
2018-07-06T09:38:29.804Z,4.83
2018-07-06T09:41:07.341Z,4.57
2018-07-06T09:43:44.813Z,4.50
2018-07-06T09:46:21.892Z,4.40
2018-07-06T09:48:59.197Z,5.67
2018-07-06T09:51:36.980Z,4.90
2018-07-06T09:54:14.418Z,6.87
2018-07-06T09:56:52.132Z,4.40
2018-07-06T09:59:29.750Z,5.10
2018-07-06T10:02:07.263Z,5.57
2018-07-06T10:04:44.680Z,4.53
2018-07-06T10:07:22.253Z,5.90
2018-07-06T10:09:59.170Z,5.03
2018-07-06T10:12:36.558Z,5.13
2018-07-06T10:15:14.016Z,5.23
2018-07-06T10:17:51.778Z,4.97
2018-07-06T10:20:29.404Z,4.77
2018-07-06T10:23:06.430Z,4.70
2018-07-06T10:25:43.662Z,4.93
2018-07-06T10:30:51.517Z,4.93
2018-07-06T10:33:29.234Z,4.30
2018-07-06T10:36:06.695Z,4.67
2018-07-06T10:38:44.099Z,5.27
2018-07-06T10:41:21.593Z,4.50
2018-07-06T10:43:59.183Z,4.07
2018-07-06T10:46:36.599Z,4.97
2018-07-06T10:49:13.888Z,4.10
2018-07-06T10:51:51.507Z,4.43
2018-07-06T10:54:28.899Z,4.87
2018-07-06T10:57:07.084Z,5.07
2018-07-06T10:59:44.642Z,4.93
2018-07-06T11:02:22.361Z,4.67
2018-07-06T11:04:59.888Z,4.43
2018-07-06T11:07:37.426Z,5.33
2018-07-06T11:10:15.090Z,5.70
2018-07-06T11:12:52.707Z,4.30
2018-07-06T11:15:30.156Z,5.97
2018-07-06T11:18:07.918Z,4.90
2018-07-06T11:20:45.480Z,5.50
2018-07-06T11:23:23.125Z,5.87
2018-07-06T11:26:00.559Z,6.17
2018-07-06T11:28:38.025Z,7.07
2018-07-06T11:31:15.540Z,6.10
2018-07-06T11:33:53.146Z,6.87
2018-07-06T11:36:30.781Z,7.70
2018-07-06T11:39:09.179Z,6.23
2018-07-06T11:41:48.260Z,6.03
2018-07-06T11:44:25.788Z,11.23
2018-07-06T11:47:03.333Z,11.70
2018-07-06T11:49:40.724Z,9.67
2018-07-06T11:52:18.196Z,10.27
2018-07-06T11:54:55.699Z,7.33
2018-07-06T11:57:33.430Z,7.90
2018-07-06T12:00:10.989Z,8.57
2018-07-06T12:02:48.559Z,8.23
2018-07-06T12:05:27.144Z,11.20
2018-07-06T12:08:04.797Z,10.40
2018-07-06T12:10:42.344Z,8.03
2018-07-06T12:13:21.876Z,8.80
2018-07-06T12:15:59.176Z,5.97
2018-07-06T12:18:36.682Z,7.33
2018-07-06T12:21:14.428Z,5.33
2018-07-06T12:23:51.917Z,5.20
2018-07-06T12:26:29.244Z,4.80
2018-07-06T12:29:06.828Z,5.90
2018-07-06T12:31:44.316Z,5.53
2018-07-06T12:34:21.752Z,5.60
2018-07-06T12:36:59.238Z,6.53
2018-07-06T12:39:36.791Z,6.13
2018-07-06T12:42:14.203Z,6.20
2018-07-06T12:44:51.525Z,6.00
2018-07-06T12:47:28.993Z,5.70
2018-07-06T12:50:06.673Z,6.30
2018-07-06T12:52:44.091Z,8.30
2018-07-06T12:55:21.606Z,11.13
2018-07-06T12:57:59.111Z,7.50
2018-07-06T13:00:36.775Z,5.40
2018-07-06T13:03:14.336Z,8.60
2018-07-06T13:05:51.881Z,6.03
2018-07-06T13:08:29.329Z,5.60
2018-07-06T13:11:06.909Z,5.17
2018-07-06T13:13:44.429Z,4.70
2018-07-06T13:16:21.787Z,5.03
2018-07-06T13:18:58.989Z,5.07
2018-07-06T13:21:36.468Z,4.73
2018-07-06T13:24:14.027Z,5.27
2018-07-06T13:26:51.829Z,4.37
2018-07-06T13:29:29.302Z,4.73
2018-07-06T13:32:07.080Z,5.53
2018-07-06T13:34:44.479Z,5.20
2018-07-06T13:37:22.058Z,4.53
2018-07-06T13:39:59.841Z,6.23
2018-07-06T13:42:37.165Z,5.60
2018-07-06T13:45:14.958Z,5.93
2018-07-06T13:47:52.289Z,6.13
2018-07-06T13:50:29.789Z,4.80
2018-07-06T13:53:07.423Z,4.70
2018-07-06T13:55:44.690Z,3.90
2018-07-06T13:58:22.091Z,4.23
2018-07-06T14:00:59.678Z,3.57
2018-07-06T14:03:37.371Z,3.53
2018-07-06T14:06:15.062Z,4.93
2018-07-06T14:08:52.321Z,5.40
2018-07-06T14:11:29.731Z,2.77
2018-07-06T14:14:07.118Z,3.07
2018-07-06T14:16:44.581Z,2.87
2018-07-06T14:19:22.025Z,2.93
2018-07-06T14:21:59.542Z,3.27
2018-07-06T14:24:36.882Z,2.73
2018-07-06T14:27:14.500Z,3.00
2018-07-06T14:29:51.937Z,3.83
2018-07-06T14:32:29.350Z,3.20
2018-07-06T14:35:06.854Z,4.40
2018-07-06T14:37:44.292Z,2.90
2018-07-06T14:40:21.925Z,3.83
2018-07-06T14:42:59.280Z,5.07
2018-07-06T14:45:36.732Z,4.07
2018-07-06T14:48:14.187Z,3.30
2018-07-06T14:50:52.481Z,3.50
2018-07-06T14:53:30.050Z,3.57
2018-07-06T14:56:07.472Z,3.30
2018-07-06T14:58:44.492Z,3.90
2018-07-06T15:01:21.741Z,6.60
2018-07-06T15:03:59.280Z,4.27
2018-07-06T15:06:36.960Z,4.83
2018-07-06T15:09:14.324Z,3.80
2018-07-06T15:11:51.687Z,3.23
2018-07-06T15:14:29.234Z,3.63
2018-07-06T15:17:06.751Z,3.87
2018-07-06T15:19:44.231Z,3.57
2018-07-06T15:22:21.594Z,2.30
2018-07-06T15:24:59.025Z,2.67
2018-07-06T15:27:36.462Z,3.83
2018-07-06T15:30:14.119Z,2.60
2018-07-06T15:32:51.629Z,3.53
2018-07-06T15:35:29.133Z,2.13
2018-07-06T15:38:06.612Z,2.40
2018-07-06T15:40:44.132Z,4.67
2018-07-06T15:43:21.545Z,2.30
2018-07-06T15:45:59.121Z,2.27
2018-07-06T15:48:36.837Z,3.27
2018-07-06T15:51:14.464Z,1.67
2018-07-06T15:53:52.173Z,2.90
2018-07-06T15:56:29.306Z,4.13
2018-07-06T15:59:06.757Z,2.67
2018-07-06T16:01:44.327Z,2.00
2018-07-06T16:04:21.666Z,2.00
2018-07-06T16:06:59.293Z,2.47
2018-07-06T16:09:36.909Z,2.30
2018-07-06T16:12:14.375Z,2.17
2018-07-06T16:14:51.828Z,3.97
2018-07-06T16:17:29.382Z,2.40
2018-07-06T16:20:06.762Z,1.87
2018-07-06T16:22:44.201Z,4.23
2018-07-06T16:25:21.670Z,2.20
2018-07-06T16:27:59.018Z,3.60
2018-07-06T16:30:36.518Z,1.63
2018-07-06T16:33:13.934Z,1.67
2018-07-06T16:35:50.844Z,2.63
2018-07-06T16:38:28.077Z,2.77
2018-07-06T16:41:05.581Z,1.50
2018-07-06T16:43:43.100Z,1.80
2018-07-06T16:46:20.051Z,1.80
2018-07-06T16:48:57.508Z,2.70
2018-07-06T16:51:34.981Z,2.03
2018-07-06T16:54:12.941Z,2.60
2018-07-06T16:56:50.341Z,2.80
2018-07-06T16:59:27.790Z,2.20
2018-07-06T17:02:05.198Z,4.23
2018-07-06T17:04:42.639Z,2.53
2018-07-06T17:07:20.054Z,2.43
2018-07-06T17:09:57.749Z,3.10
2018-07-06T17:12:35.174Z,4.77
2018-07-06T17:15:12.532Z,3.10
2018-07-06T17:17:50.019Z,3.10
2018-07-06T17:20:27.438Z,4.43
2018-07-06T17:23:04.944Z,3.10
2018-07-06T17:25:42.185Z,4.47
2018-07-06T17:28:19.105Z,3.53
2018-07-06T17:30:56.478Z,4.13
2018-07-06T17:33:33.857Z,3.47
2018-07-06T17:36:11.477Z,3.30
2018-07-06T17:38:49.030Z,4.03
2018-07-06T17:41:26.467Z,4.27
2018-07-06T17:44:03.964Z,3.50
2018-07-06T17:46:41.265Z,3.87
2018-07-06T17:49:18.648Z,4.80
2018-07-06T17:51:56.112Z,6.40
2018-07-06T17:54:33.126Z,3.70
2018-07-06T17:57:10.474Z,5.53
2018-07-06T17:59:47.965Z,4.67
2018-07-06T18:02:25.211Z,5.50
2018-07-06T18:05:02.596Z,4.93
2018-07-06T18:07:40.015Z,5.30
2018-07-06T18:10:17.582Z,4.13
2018-07-06T18:12:55.213Z,3.20
2018-07-06T18:15:32.817Z,3.77
2018-07-06T18:18:11.150Z,3.77
2018-07-06T18:20:49.681Z,3.70
2018-07-06T18:23:28.679Z,4.00
2018-07-06T18:26:06.164Z,7.10
2018-07-06T18:28:43.541Z,7.87
2018-07-06T18:31:21.381Z,3.57
2018-07-06T18:33:58.787Z,4.00
2018-07-06T18:36:36.229Z,3.00
2018-07-06T18:39:13.993Z,3.60
2018-07-06T18:41:51.734Z,2.97
2018-07-06T18:44:29.882Z,2.97
2018-07-06T18:47:07.244Z,3.10
2018-07-06T18:49:44.521Z,2.83
2018-07-06T18:52:22.333Z,3.37
2018-07-06T18:55:05.758Z,3.20
2018-07-06T18:57:44.449Z,3.00
2018-07-06T19:00:22.851Z,3.87
2018-07-06T19:03:00.292Z,3.70
2018-07-06T19:05:37.701Z,3.23
2018-07-06T19:08:15.359Z,3.40
2018-07-06T19:10:52.834Z,3.03
2018-07-06T19:13:30.292Z,2.70
2018-07-06T19:16:07.871Z,2.93
2018-07-06T19:18:45.503Z,3.00
2018-07-06T19:21:23.179Z,2.83
2018-07-06T19:24:03.520Z,3.00
2018-07-06T19:26:42.258Z,3.57
2018-07-06T19:29:19.750Z,3.30
2018-07-06T19:31:57.389Z,3.40
2018-07-06T19:34:34.796Z,2.90
2018-07-06T19:37:13.098Z,4.33
2018-07-06T19:39:50.622Z,3.07
2018-07-06T19:42:28.405Z,2.93
2018-07-06T19:45:06.176Z,4.40
2018-07-06T19:47:43.631Z,3.10
2018-07-06T19:50:21.072Z,3.57
2018-07-06T19:52:58.702Z,4.43
2018-07-06T19:55:38.237Z,3.00
2018-07-06T19:58:15.763Z,3.30
2018-07-06T20:00:52.924Z,3.80
2018-07-06T20:27:32.335Z,5.03
2018-07-06T20:30:10.733Z,3.50
2018-07-06T20:32:48.950Z,3.57
2018-07-06T20:35:25.834Z,3.80
2018-07-06T20:38:03.242Z,3.83
2018-07-06T20:40:41.750Z,4.93
2018-07-06T20:43:19.334Z,6.00
2018-07-06T20:45:56.841Z,3.63
2018-07-06T20:48:34.440Z,4.10
2018-07-06T20:51:11.794Z,4.00
2018-07-06T20:53:49.404Z,4.40
2018-07-06T20:56:26.793Z,4.20
2018-07-06T20:59:04.338Z,4.03
2018-07-06T21:01:41.970Z,4.27
2018-07-06T21:04:19.404Z,3.77
2018-07-06T21:06:56.904Z,4.10
2018-07-06T21:09:34.349Z,4.07
2018-07-06T21:12:11.922Z,4.87
2018-07-06T21:14:49.556Z,3.73
2018-07-06T21:17:26.997Z,5.00
2018-07-06T21:20:04.631Z,4.00
2018-07-06T21:22:41.929Z,4.30
2018-07-06T21:25:19.249Z,4.20
2018-07-06T21:27:56.706Z,4.83
2018-07-06T21:30:33.736Z,4.10
2018-07-06T21:33:10.946Z,5.30
2018-07-06T21:35:48.570Z,8.13
2018-07-06T21:38:26.109Z,6.33
2018-07-06T21:41:03.716Z,6.13
2018-07-06T21:43:41.269Z,6.07
2018-07-06T21:46:18.769Z,5.97
2018-07-06T21:48:56.325Z,5.47
2018-07-06T21:51:33.763Z,6.57
2018-07-06T21:54:11.137Z,6.60
2018-07-06T21:56:48.610Z,5.60
2018-07-06T21:59:26.008Z,5.67
2018-07-06T22:02:03.610Z,5.03
2018-07-06T22:04:41.013Z,5.10
2018-07-06T22:07:18.418Z,5.60
2018-07-06T22:09:55.882Z,6.10
2018-07-06T22:12:33.270Z,4.10
2018-07-06T22:15:10.557Z,4.97
2018-07-06T22:17:48.037Z,4.60
2018-07-06T22:20:25.373Z,5.70
2018-07-06T22:23:02.997Z,5.33
2018-07-06T22:25:40.481Z,5.10
2018-07-06T22:28:17.924Z,6.30
2018-07-06T22:30:55.616Z,5.70
2018-07-06T22:33:33.121Z,7.43
2018-07-06T22:36:10.729Z,4.90
2018-07-06T22:38:48.249Z,6.20
2018-07-06T22:41:25.631Z,7.27
2018-07-06T22:44:03.565Z,6.07
2018-07-06T22:46:41.154Z,6.30
2018-07-06T22:49:18.660Z,5.33
2018-07-06T22:51:56.049Z,6.47
2018-07-06T22:54:33.410Z,6.00
2018-07-06T22:57:11.521Z,6.13
2018-07-06T22:59:49.082Z,5.60
2018-07-06T23:02:26.734Z,5.30
2018-07-06T23:05:17.484Z,6.37
2018-07-06T23:07:55.609Z,6.77
2018-07-06T23:10:33.146Z,7.17
2018-07-06T23:13:10.709Z,11.17
2018-07-06T23:15:48.089Z,8.20
2018-07-06T23:18:25.525Z,8.83
2018-07-06T23:21:03.077Z,9.03
2018-07-06T23:23:40.441Z,9.60
2018-07-06T23:26:17.951Z,10.57
2018-07-06T23:28:55.446Z,9.10
2018-07-06T23:31:32.868Z,9.37
2018-07-06T23:34:11.130Z,8.97
2018-07-06T23:36:48.634Z,8.43
2018-07-06T23:39:27.021Z,9.00
2018-07-06T23:42:04.450Z,8.97
2018-07-06T23:44:41.912Z,9.33
2018-07-06T23:47:19.454Z,7.10
2018-07-06T23:49:56.880Z,7.97
2018-07-06T23:52:34.124Z,7.40
2018-07-06T23:55:11.328Z,7.27
2018-07-06T23:57:49.441Z,9.40
